createdAt,value
2023-03-24T00:00:28.110Z,2.25
2023-03-24T00:03:02.677Z,2.92
2023-03-24T00:05:33.427Z,2.63
2023-03-24T00:08:04.932Z,2.63
2023-03-24T00:10:35.726Z,2.55
2023-03-24T00:13:07.190Z,2.08
2023-03-24T00:15:37.478Z,2.22
2023-03-24T00:18:11.770Z,1.85
2023-03-24T00:20:43.721Z,2.33
2023-03-24T00:23:13.979Z,2.58
2023-03-24T00:25:44.023Z,2.10
2023-03-24T00:28:15.100Z,1.92
2023-03-24T00:30:52.967Z,1.98
2023-03-24T00:33:23.070Z,2.13
2023-03-24T00:35:53.839Z,2.15
2023-03-24T00:38:24.435Z,2.10
2023-03-24T00:40:55.216Z,1.92
2023-03-24T00:43:25.302Z,2.13
2023-03-24T00:46:03.254Z,2.17
2023-03-24T00:48:39.241Z,2.63
2023-03-24T00:51:12.350Z,2.28
2023-03-24T00:53:44.866Z,2.25
2023-03-24T00:56:16.697Z,2.67
2023-03-24T00:58:46.901Z,2.65
2023-03-24T01:01:23.397Z,2.58
2023-03-24T01:03:53.714Z,2.17
2023-03-24T01:06:26.238Z,2.95
2023-03-24T01:08:56.538Z,2.67
2023-03-24T01:11:28.385Z,4.05
2023-03-24T01:13:58.608Z,3.30
2023-03-24T01:16:29.204Z,3.17
2023-03-24T01:19:00.683Z,3.60
2023-03-24T01:21:30.958Z,3.78
2023-03-24T01:24:01.144Z,4.05
2023-03-24T01:26:31.796Z,2.95
2023-03-24T01:29:01.939Z,3.25
2023-03-24T01:31:32.790Z,3.92
2023-03-24T01:34:03.264Z,3.65
2023-03-24T01:36:33.590Z,3.08
2023-03-24T01:39:03.637Z,3.60
2023-03-24T01:41:41.949Z,3.25
2023-03-24T01:44:44.831Z,3.03
2023-03-24T01:47:15.414Z,3.45
2023-03-24T01:49:55.771Z,3.00
2023-03-24T01:52:37.516Z,3.47
2023-03-24T01:55:21.083Z,3.17
2023-03-24T01:57:58.045Z,3.25
2023-03-24T02:00:33.442Z,3.17
2023-03-24T02:03:27.936Z,3.67
2023-03-24T02:05:58.870Z,3.40
2023-03-24T02:08:48.251Z,3.22
2023-03-24T02:11:18.444Z,3.05
2023-03-24T02:14:01.775Z,3.33
2023-03-24T02:16:48.051Z,3.70
2023-03-24T02:19:25.381Z,3.28
2023-03-24T02:22:42.124Z,3.38
2023-03-24T02:25:49.505Z,4.30
2023-03-24T02:28:34.499Z,3.85
2023-03-24T02:31:25.382Z,3.70
2023-03-24T02:34:32.399Z,2.95
2023-03-24T02:37:28.742Z,3.13
2023-03-24T02:40:38.012Z,3.45
2023-03-24T02:43:32.738Z,2.92
2023-03-24T02:48:45.214Z,2.80
2023-03-24T02:51:52.143Z,3.08
2023-03-24T02:54:49.855Z,3.70
2023-03-24T02:57:29.332Z,4.15
2023-03-24T03:00:22.658Z,3.65
2023-03-24T03:03:35.776Z,3.83
2023-03-24T03:06:20.632Z,3.58
2023-03-24T03:08:51.788Z,3.20
2023-03-24T03:11:22.229Z,2.75
2023-03-24T03:14:33.408Z,3.08
2023-03-24T03:17:13.813Z,3.17
2023-03-24T03:19:51.508Z,3.15
2023-03-24T03:22:26.662Z,3.17
2023-03-24T03:24:59.072Z,3.00
2023-03-24T03:27:34.499Z,3.35
2023-03-24T03:30:32.982Z,3.38
2023-03-24T03:33:13.644Z,3.20
2023-03-24T03:36:04.786Z,3.03
2023-03-24T03:39:22.096Z,3.08
2023-03-24T03:41:52.546Z,3.17
2023-03-24T03:44:22.943Z,2.90
2023-03-24T03:46:53.765Z,2.70
2023-03-24T03:49:33.546Z,3.10
2023-03-24T03:52:03.835Z,2.50
2023-03-24T03:54:35.451Z,3.33
2023-03-24T03:57:05.978Z,3.13
2023-03-24T03:59:56.590Z,3.22
2023-03-24T04:02:48.259Z,2.92
2023-03-24T04:05:49.380Z,3.40
2023-03-24T04:08:30.523Z,3.28
2023-03-24T04:11:52.314Z,4.20
2023-03-24T04:14:45.462Z,5.70
2023-03-24T04:17:47.709Z,6.15
2023-03-24T04:20:47.761Z,5.45
2023-03-24T04:23:31.428Z,5.03
2023-03-24T04:26:27.801Z,4.28
2023-03-24T04:29:07.417Z,3.08
2023-03-24T04:31:54.518Z,3.90
2023-03-24T04:34:34.780Z,2.20
2023-03-24T04:37:19.589Z,3.40
2023-03-24T04:42:53.711Z,2.95
2023-03-24T04:45:29.699Z,2.33
2023-03-24T04:48:21.946Z,2.47
2023-03-24T04:51:09.784Z,2.75
2023-03-24T04:53:58.173Z,2.70
2023-03-24T04:56:40.015Z,2.60
2023-03-24T04:59:19.831Z,1.98
2023-03-24T05:01:53.699Z,2.47
2023-03-24T05:04:38.111Z,1.73
2023-03-24T05:07:22.545Z,1.88
2023-03-24T05:09:56.640Z,1.65
2023-03-24T05:12:26.765Z,2.05
2023-03-24T05:15:19.281Z,2.40
2023-03-24T05:17:54.210Z,1.88
2023-03-24T05:20:28.324Z,1.98
2023-03-24T05:23:08.811Z,2.03
2023-03-24T05:25:39.032Z,2.38
2023-03-24T05:28:09.203Z,2.00
2023-03-24T05:30:39.939Z,2.00
2023-03-24T05:33:42.231Z,2.55
2023-03-24T05:36:17.098Z,2.15
2023-03-24T05:38:56.246Z,2.97
2023-03-24T05:41:33.262Z,2.40
2023-03-24T05:46:32.961Z,2.13
2023-03-24T05:49:06.165Z,2.15
2023-03-24T05:51:41.497Z,1.80
2023-03-24T05:56:44.274Z,1.70
2023-03-24T05:59:14.315Z,1.42
2023-03-24T06:02:10.317Z,1.73
2023-03-24T06:05:03.171Z,1.88
2023-03-24T06:07:33.417Z,2.63
2023-03-24T06:10:08.749Z,2.70
2023-03-24T06:12:47.265Z,3.03
2023-03-24T06:15:18.645Z,2.42
2023-03-24T06:17:51.308Z,2.60
2023-03-24T06:20:34.499Z,1.55
2023-03-24T06:23:04.777Z,2.20
2023-03-24T06:25:45.563Z,2.30
2023-03-24T06:28:31.540Z,2.15
2023-03-24T06:31:19.516Z,2.78
2023-03-24T06:33:50.669Z,2.67
2023-03-24T06:36:22.088Z,2.53
2023-03-24T06:38:53.997Z,2.67
2023-03-24T06:41:25.232Z,2.47
2023-03-24T06:43:59.944Z,1.92
2023-03-24T06:46:30.137Z,2.75
2023-03-24T06:49:00.296Z,2.38
2023-03-24T06:51:30.889Z,2.47
2023-03-24T06:54:02.252Z,2.20
2023-03-24T06:56:32.704Z,2.47
2023-03-24T06:59:03.467Z,2.53
2023-03-24T07:01:37.252Z,2.83
2023-03-24T07:04:37.855Z,3.05
2023-03-24T07:07:41.436Z,1.90
2023-03-24T07:10:23.127Z,2.50
2023-03-24T07:12:53.444Z,2.60
2023-03-24T07:15:23.783Z,2.05
2023-03-24T07:17:54.159Z,2.97
2023-03-24T07:20:40.488Z,2.20
2023-03-24T07:23:18.686Z,2.33
2023-03-24T07:28:38.265Z,2.17
2023-03-24T07:31:11.985Z,2.35
2023-03-24T07:33:43.763Z,2.30
2023-03-24T07:36:14.022Z,2.15
2023-03-24T07:38:44.837Z,2.42
2023-03-24T07:41:21.750Z,2.00
2023-03-24T07:43:59.372Z,2.00
2023-03-24T07:46:36.487Z,1.52
2023-03-24T07:49:18.291Z,2.42
2023-03-24T07:51:56.608Z,2.83
2023-03-24T07:54:32.592Z,2.22
2023-03-24T07:57:03.796Z,2.20
2023-03-24T07:59:35.366Z,1.73
2023-03-24T08:02:34.805Z,2.30
2023-03-24T08:05:43.527Z,2.38
2023-03-24T08:08:21.335Z,3.17
2023-03-24T08:13:22.992Z,2.45
2023-03-24T08:15:54.455Z,1.92
2023-03-24T08:18:26.412Z,2.20
2023-03-24T08:20:59.425Z,2.45
2023-03-24T08:23:30.010Z,2.13
2023-03-24T08:26:00.319Z,2.97
2023-03-24T08:28:30.425Z,4.95
2023-03-24T08:33:30.427Z,4.03
2023-03-24T08:36:02.032Z,3.30
2023-03-24T08:38:33.078Z,2.72
2023-03-24T08:41:07.889Z,2.65
2023-03-24T08:43:38.831Z,2.92
2023-03-24T08:46:13.294Z,2.28
2023-03-24T08:48:45.108Z,2.15
2023-03-24T08:51:17.624Z,2.83
2023-03-24T08:53:47.764Z,2.42
2023-03-24T08:56:17.803Z,2.22
2023-03-24T08:58:49.850Z,2.00
2023-03-24T09:01:20.651Z,2.70
2023-03-24T09:03:50.842Z,2.65
2023-03-24T09:06:21.064Z,2.92
2023-03-24T09:08:51.344Z,2.13
2023-03-24T09:11:23.797Z,2.28
2023-03-24T09:13:54.128Z,2.45
2023-03-24T09:16:24.607Z,2.47
2023-03-24T09:18:54.741Z,2.67
2023-03-24T09:21:25.083Z,2.47
2023-03-24T09:23:55.764Z,3.53
2023-03-24T09:26:25.758Z,2.67
2023-03-24T09:28:55.868Z,3.10
2023-03-24T09:33:55.274Z,2.70
2023-03-24T09:38:55.183Z,2.90
2023-03-24T09:41:33.126Z,3.17
2023-03-24T09:44:27.707Z,2.95
2023-03-24T09:47:34.796Z,2.95
2023-03-24T09:50:25.644Z,2.97
2023-03-24T09:53:01.036Z,2.25
2023-03-24T09:55:31.593Z,3.10
2023-03-24T09:58:07.386Z,2.83
2023-03-24T10:00:38.787Z,3.20
2023-03-24T10:03:28.271Z,4.05
2023-03-24T10:06:43.076Z,3.35
2023-03-24T10:09:40.355Z,3.42
2023-03-24T10:12:32.781Z,4.40
2023-03-24T10:15:30.940Z,4.25
2023-03-24T10:18:31.297Z,3.90
2023-03-24T10:21:19.464Z,3.72
2023-03-24T10:24:07.166Z,4.00
2023-03-24T10:26:54.101Z,3.95
2023-03-24T10:29:36.928Z,3.33
2023-03-24T10:32:29.308Z,3.20
2023-03-24T10:35:10.675Z,3.03
2023-03-24T10:37:40.690Z,3.83
2023-03-24T10:40:23.385Z,2.80
2023-03-24T10:43:06.753Z,3.78
2023-03-24T10:45:42.004Z,3.55
2023-03-24T10:48:15.308Z,3.55
2023-03-24T10:50:47.019Z,3.58
2023-03-24T10:53:22.250Z,3.72
2023-03-24T10:55:52.395Z,3.70
2023-03-24T11:00:52.858Z,3.97
2023-03-24T11:03:40.727Z,3.45
2023-03-24T11:06:19.800Z,3.30
2023-03-24T11:09:08.753Z,2.80
2023-03-24T11:11:38.876Z,3.90
2023-03-24T11:14:26.508Z,3.63
2023-03-24T11:17:17.079Z,4.72
2023-03-24T11:19:54.800Z,3.47
2023-03-24T11:22:26.657Z,3.88
2023-03-24T11:24:58.573Z,3.38
2023-03-24T11:27:29.477Z,3.45
2023-03-24T11:30:00.455Z,3.30
2023-03-24T11:32:31.278Z,2.78
2023-03-24T11:35:18.694Z,2.85
2023-03-24T11:37:49.764Z,2.97
2023-03-24T11:40:24.969Z,3.63
2023-03-24T11:43:02.737Z,3.90
2023-03-24T11:45:54.783Z,3.00
2023-03-24T11:48:53.682Z,3.45
2023-03-24T11:51:34.540Z,3.25
2023-03-24T11:54:16.762Z,2.65
2023-03-24T11:56:49.539Z,3.17
2023-03-24T12:00:00.271Z,2.42
2023-03-24T12:03:03.983Z,3.03
2023-03-24T12:05:50.810Z,3.33
2023-03-24T12:08:50.255Z,3.83
2023-03-24T12:11:51.785Z,3.63
2023-03-24T12:14:36.839Z,3.40
2023-03-24T12:17:19.283Z,3.65
2023-03-24T12:22:37.902Z,2.60
2023-03-24T12:25:36.378Z,3.13
2023-03-24T12:28:22.057Z,3.17
2023-03-24T12:31:00.875Z,4.35
2023-03-24T12:34:06.182Z,3.92
2023-03-24T12:37:00.424Z,4.95
2023-03-24T12:39:34.164Z,5.03
2023-03-24T12:42:11.948Z,4.13
2023-03-24T12:45:13.878Z,3.92
2023-03-24T12:48:24.422Z,3.38
2023-03-24T12:51:26.312Z,4.15
2023-03-24T12:54:08.607Z,4.13
2023-03-24T12:56:54.804Z,4.07
2023-03-24T12:59:39.362Z,4.00
2023-03-24T13:02:27.928Z,3.85
2023-03-24T13:07:40.473Z,4.00
2023-03-24T13:10:21.615Z,3.63
2023-03-24T13:13:03.395Z,4.10
2023-03-24T13:16:05.482Z,2.95
2023-03-24T13:19:01.417Z,3.42
2023-03-24T13:21:36.238Z,3.38
2023-03-24T13:24:14.859Z,2.83
2023-03-24T13:27:08.634Z,2.97
2023-03-24T13:30:08.805Z,2.97
2023-03-24T13:32:56.674Z,3.05
2023-03-24T13:35:45.426Z,3.70
2023-03-24T13:38:21.059Z,2.65
2023-03-24T13:40:55.915Z,3.15
2023-03-24T13:43:31.418Z,2.97
2023-03-24T13:46:03.101Z,2.45
2023-03-24T13:48:43.076Z,3.60
2023-03-24T13:51:19.116Z,3.33
2023-03-24T13:54:07.223Z,2.85
2023-03-24T13:56:41.056Z,3.13
2023-03-24T13:59:27.395Z,2.70
2023-03-24T14:02:23.261Z,3.33
2023-03-24T14:05:08.830Z,2.55
2023-03-24T14:07:42.208Z,1.75
2023-03-24T14:10:22.092Z,2.33
2023-03-24T14:13:04.344Z,2.25
2023-03-24T14:15:35.888Z,2.10
2023-03-24T14:18:42.598Z,1.88
2023-03-24T14:21:12.976Z,1.60
2023-03-24T14:23:47.410Z,2.03
2023-03-24T14:26:35.287Z,2.72
2023-03-24T14:29:05.644Z,1.65
2023-03-24T14:31:40.124Z,2.53
2023-03-24T14:34:26.504Z,2.00
2023-03-24T14:37:09.229Z,1.63
2023-03-24T14:39:49.371Z,1.52
2023-03-24T14:42:37.655Z,1.45
2023-03-24T14:45:33.283Z,1.10
2023-03-24T14:48:04.875Z,1.23
2023-03-24T14:50:36.117Z,1.65
2023-03-24T14:53:07.161Z,1.48
2023-03-24T14:55:38.262Z,1.42
2023-03-24T14:58:40.242Z,1.33
2023-03-24T15:01:13.209Z,1.10
2023-03-24T15:04:14.827Z,0.80
2023-03-24T15:06:48.050Z,1.15
2023-03-24T15:09:19.889Z,0.90
2023-03-24T15:11:50.632Z,1.42
2023-03-24T15:14:28.107Z,1.02
2023-03-24T15:17:17.524Z,1.38
2023-03-24T15:19:55.449Z,1.30
2023-03-24T15:22:25.570Z,1.08
2023-03-24T15:25:00.191Z,1.30
2023-03-24T15:27:33.154Z,1.77
2023-03-24T15:30:03.258Z,1.65
2023-03-24T15:32:33.608Z,1.45
2023-03-24T15:35:08.666Z,2.00
2023-03-24T15:37:44.128Z,1.38
2023-03-24T15:40:31.291Z,0.95
2023-03-24T15:43:08.078Z,1.40
2023-03-24T15:45:45.489Z,1.55
2023-03-24T15:48:20.487Z,1.50
2023-03-24T15:51:16.674Z,1.00
2023-03-24T15:54:00.424Z,1.45
2023-03-24T15:56:37.579Z,1.40
2023-03-24T15:59:25.529Z,1.13
2023-03-24T16:01:56.018Z,1.27
2023-03-24T16:04:26.249Z,1.17
2023-03-24T16:06:58.774Z,1.15
2023-03-24T16:09:39.225Z,1.10
2023-03-24T16:12:12.871Z,1.00
2023-03-24T16:14:43.048Z,0.85
2023-03-24T16:17:13.152Z,1.02
2023-03-24T16:19:43.319Z,1.08
2023-03-24T16:22:13.933Z,1.02
2023-03-24T16:24:44.173Z,0.90
2023-03-24T16:27:14.563Z,0.50
2023-03-24T16:29:44.991Z,0.60
2023-03-24T16:32:15.107Z,0.80
2023-03-24T16:34:45.342Z,1.10
2023-03-24T16:37:15.408Z,0.70
2023-03-24T16:39:45.586Z,0.95
2023-03-24T16:42:16.141Z,0.93
2023-03-24T16:44:47.720Z,1.15
2023-03-24T16:47:17.872Z,0.90
2023-03-24T16:49:48.182Z,1.08
2023-03-24T16:52:19.016Z,0.98
2023-03-24T16:54:51.193Z,1.20
2023-03-24T16:57:22.538Z,1.02
2023-03-24T16:59:52.912Z,0.95
2023-03-24T17:02:23.082Z,1.05
2023-03-24T17:04:54.338Z,1.70
2023-03-24T17:07:24.376Z,1.10
2023-03-24T17:09:54.497Z,0.60
2023-03-24T17:12:25.035Z,0.38
2023-03-24T17:14:56.114Z,0.70
2023-03-24T17:17:26.454Z,0.70
2023-03-24T17:19:59.184Z,0.90
2023-03-24T17:22:29.315Z,0.98
2023-03-24T17:24:59.586Z,0.77
2023-03-24T17:27:29.702Z,0.80
2023-03-24T17:30:00.209Z,0.70
2023-03-24T17:32:34.084Z,0.73
2023-03-24T17:35:04.906Z,0.28
2023-03-24T17:37:34.963Z,0.70
2023-03-24T17:40:11.558Z,0.73
2023-03-24T17:42:46.216Z,1.00
2023-03-24T17:45:19.777Z,1.25
2023-03-24T17:47:50.074Z,0.50
2023-03-24T17:50:20.374Z,0.80
2023-03-24T17:52:51.115Z,0.50
2023-03-24T17:55:21.641Z,0.55
2023-03-24T17:57:51.578Z,0.60
2023-03-24T18:00:21.776Z,0.60
2023-03-24T18:02:52.005Z,0.60
2023-03-24T18:05:22.418Z,0.45
2023-03-24T18:07:52.795Z,0.50
2023-03-24T18:10:22.698Z,0.50
2023-03-24T18:12:54.488Z,0.50
2023-03-24T18:15:26.849Z,0.75
2023-03-24T18:17:57.122Z,0.45
2023-03-24T18:20:27.651Z,0.30
2023-03-24T18:22:57.985Z,0.10
2023-03-24T18:25:47.645Z,0.30
2023-03-24T18:28:17.679Z,0.28
2023-03-24T18:33:18.113Z,0.43
2023-03-24T18:35:55.023Z,0.20
2023-03-24T18:38:25.882Z,0.30
2023-03-24T18:41:17.888Z,0.52
2023-03-24T18:43:48.864Z,0.40
2023-03-24T18:46:18.985Z,0.57
2023-03-24T18:48:49.280Z,0.43
2023-03-24T18:51:19.481Z,0.57
2023-03-24T18:53:50.791Z,0.50
2023-03-24T18:56:22.820Z,0.30
2023-03-24T18:58:53.673Z,1.08
2023-03-24T19:01:24.203Z,0.93
2023-03-24T19:03:55.113Z,0.47
2023-03-24T19:06:32.011Z,0.20
2023-03-24T19:09:02.772Z,0.30
2023-03-24T19:11:32.913Z,0.35
2023-03-24T19:14:03.373Z,0.55
2023-03-24T19:16:34.910Z,0.80
2023-03-24T19:19:05.859Z,0.30
2023-03-24T19:21:36.032Z,0.60
2023-03-24T19:24:06.330Z,0.30
2023-03-24T19:26:36.988Z,0.20
2023-03-24T19:29:07.495Z,0.30
2023-03-24T19:31:38.031Z,0.40
2023-03-24T19:34:08.210Z,0.50
2023-03-24T19:36:42.786Z,0.38
2023-03-24T19:39:16.502Z,0.47
2023-03-24T19:41:46.593Z,0.40
2023-03-24T19:44:16.915Z,0.30
2023-03-24T19:46:47.263Z,0.40
2023-03-24T19:49:17.371Z,0.25
2023-03-24T19:51:48.468Z,0.28
2023-03-24T19:54:19.032Z,0.20
2023-03-24T19:56:49.100Z,0.40
2023-03-24T19:59:19.326Z,0.40
2023-03-24T20:01:49.514Z,0.15
2023-03-24T20:04:19.823Z,0.32
2023-03-24T20:06:50.454Z,0.30
2023-03-24T20:11:49.808Z,0.30
2023-03-24T20:14:21.359Z,0.20
2023-03-24T20:16:51.485Z,0.50
2023-03-24T20:21:51.127Z,0.30
2023-03-24T20:24:21.263Z,0.47
2023-03-24T20:26:52.450Z,0.63
2023-03-24T20:29:23.119Z,0.20
2023-03-24T20:31:53.924Z,0.30
2023-03-24T20:34:24.467Z,0.30
2023-03-24T20:36:54.623Z,0.25
2023-03-24T20:39:24.786Z,0.55
2023-03-24T20:44:24.354Z,0.28
2023-03-24T20:49:25.466Z,0.50
2023-03-24T20:51:55.715Z,0.40
2023-03-24T20:54:25.969Z,0.40
2023-03-24T20:56:56.408Z,0.43
2023-03-24T20:59:27.293Z,0.50
2023-03-24T21:01:57.509Z,0.40
2023-03-24T21:04:27.633Z,0.30
2023-03-24T21:06:57.601Z,0.45
2023-03-24T21:09:27.662Z,0.65
2023-03-24T21:11:57.577Z,0.40
2023-03-24T21:14:28.242Z,0.60
2023-03-24T21:16:58.365Z,0.28
2023-03-24T21:19:28.912Z,0.60
2023-03-24T21:21:58.819Z,0.40
2023-03-24T21:24:28.665Z,1.17
2023-03-24T21:26:58.859Z,0.98
2023-03-24T21:29:28.994Z,0.50
2023-03-24T21:31:59.488Z,0.50
2023-03-24T21:34:29.539Z,0.38
2023-03-24T21:37:02.399Z,0.38
2023-03-24T21:39:32.969Z,0.75
2023-03-24T21:42:04.241Z,0.43
2023-03-24T21:44:35.405Z,0.52
2023-03-24T21:47:05.593Z,0.65
2023-03-24T21:49:35.760Z,0.68
2023-03-24T21:54:35.330Z,0.70
2023-03-24T21:57:05.553Z,0.60
2023-03-24T21:59:36.870Z,0.70
2023-03-24T22:02:09.484Z,0.75
2023-03-24T22:04:39.703Z,0.40
2023-03-24T22:09:39.861Z,0.40
2023-03-24T22:12:09.981Z,0.40
2023-03-24T22:14:39.989Z,0.73
2023-03-24T22:19:40.067Z,0.47
2023-03-24T22:24:40.240Z,0.50
2023-03-24T22:27:10.353Z,0.77
2023-03-24T22:29:40.267Z,0.80
2023-03-24T22:32:10.773Z,0.70
2023-03-24T22:34:40.918Z,0.55
2023-03-24T22:37:11.075Z,0.80
2023-03-24T22:39:41.101Z,0.65
2023-03-24T22:44:41.849Z,0.63
2023-03-24T22:47:12.098Z,0.60
2023-03-24T22:49:42.616Z,0.43
2023-03-24T22:52:12.737Z,0.47
2023-03-24T22:54:42.714Z,0.35
2023-03-24T22:57:32.208Z,0.57
2023-03-24T23:00:03.025Z,0.50
2023-03-24T23:02:33.237Z,0.32
2023-03-24T23:05:03.371Z,0.68
2023-03-24T23:10:07.567Z,0.32
2023-03-24T23:12:38.598Z,0.80
2023-03-24T23:15:09.600Z,0.43
2023-03-24T23:17:39.855Z,0.30
2023-03-24T23:20:11.778Z,0.60
2023-03-24T23:22:42.323Z,0.82
2023-03-24T23:25:14.607Z,0.40
2023-03-24T23:27:44.791Z,0.40
2023-03-24T23:30:18.488Z,0.40
2023-03-24T23:32:50.086Z,0.40
2023-03-24T23:35:20.448Z,0.30
2023-03-24T23:37:50.730Z,0.32
2023-03-24T23:40:20.942Z,0.30
2023-03-24T23:42:51.941Z,0.30
2023-03-24T23:45:22.832Z,0.20
2023-03-24T23:47:53.807Z,0.50
2023-03-24T23:50:23.885Z,0.20
2023-03-24T23:55:23.406Z,0.40
